createdAt,value
2022-11-21T00:00:02.793Z,0.00
2022-11-21T00:01:02.476Z,0.00
2022-11-21T00:02:02.658Z,0.00
2022-11-21T00:03:02.998Z,0.00
2022-11-21T00:04:02.435Z,0.00
2022-11-21T00:05:02.487Z,0.00
2022-11-21T00:06:02.945Z,0.00
2022-11-21T00:07:02.123Z,0.00
2022-11-21T00:08:02.433Z,0.00
2022-11-21T00:09:02.119Z,0.00
2022-11-21T00:10:02.050Z,0.00
2022-11-21T00:11:01.974Z,0.00
2022-11-21T00:12:02.582Z,0.00
2022-11-21T00:13:02.274Z,0.00
2022-11-21T00:14:02.744Z,0.00
2022-11-21T00:15:02.345Z,0.00
2022-11-21T00:16:02.715Z,0.00
2022-11-21T00:17:02.038Z,0.00
2022-11-21T00:18:02.034Z,0.00
2022-11-21T00:19:01.935Z,0.00
2022-11-21T00:20:02.478Z,0.00
2022-11-21T00:21:01.926Z,0.00
2022-11-21T00:22:02.825Z,0.00
2022-11-21T00:23:02.842Z,0.00
2022-11-21T00:24:02.476Z,0.00
2022-11-21T00:25:02.468Z,0.00
2022-11-21T00:26:02.941Z,0.00
2022-11-21T00:27:02.161Z,0.00
2022-11-21T00:28:01.790Z,0.00
2022-11-21T00:29:02.356Z,0.00
2022-11-21T00:30:02.364Z,0.00
2022-11-21T00:31:01.983Z,0.00
2022-11-21T00:32:01.933Z,0.00
2022-11-21T00:33:02.029Z,0.00
2022-11-21T00:34:02.433Z,0.00
2022-11-21T00:35:01.960Z,0.00
2022-11-21T00:36:02.211Z,0.00
2022-11-21T00:37:02.389Z,0.00
2022-11-21T00:38:02.082Z,0.00
2022-11-21T00:39:01.957Z,0.00
2022-11-21T00:40:02.450Z,0.00
2022-11-21T00:41:02.131Z,0.00
2022-11-21T00:42:02.645Z,0.00
2022-11-21T00:43:02.317Z,0.00
2022-11-21T00:44:02.303Z,0.00
2022-11-21T00:45:02.496Z,0.00
2022-11-21T00:46:02.940Z,0.00
2022-11-21T00:47:02.703Z,0.00
2022-11-21T00:48:02.431Z,0.00
2022-11-21T00:49:02.704Z,0.00
2022-11-21T00:50:03.037Z,0.00
2022-11-21T00:51:02.999Z,0.00
2022-11-21T00:52:02.137Z,0.00
2022-11-21T00:53:01.950Z,0.00
2022-11-21T00:54:01.797Z,0.00
2022-11-21T00:55:01.644Z,0.00
2022-11-21T00:56:01.572Z,0.00
2022-11-21T00:57:02.074Z,0.00
2022-11-21T00:58:02.468Z,0.00
2022-11-21T00:59:02.418Z,0.00
2022-11-21T01:00:02.056Z,0.00
2022-11-21T01:01:02.199Z,0.00
2022-11-21T01:02:03.272Z,0.00
2022-11-21T01:03:02.626Z,0.00
2022-11-21T01:04:03.264Z,0.00
2022-11-21T01:05:03.335Z,0.00
2022-11-21T01:06:02.595Z,0.00
2022-11-21T01:07:02.624Z,0.00
2022-11-21T01:08:02.415Z,0.00
2022-11-21T01:09:02.239Z,0.00
2022-11-21T01:10:02.282Z,0.00
2022-11-21T01:11:02.406Z,0.00
2022-11-21T01:12:02.077Z,0.00
2022-11-21T01:13:02.465Z,0.00
2022-11-21T01:14:02.149Z,0.00
2022-11-21T01:15:02.271Z,0.00
2022-11-21T01:16:02.439Z,0.00
2022-11-21T01:17:03.033Z,0.00
2022-11-21T01:18:03.190Z,0.00
2022-11-21T01:19:02.640Z,0.00
2022-11-21T01:20:02.727Z,0.00
2022-11-21T01:21:02.749Z,0.00
2022-11-21T01:22:02.163Z,0.00
2022-11-21T01:23:02.251Z,0.00
2022-11-21T01:24:02.410Z,0.00
2022-11-21T01:25:02.295Z,0.00
2022-11-21T01:26:02.849Z,0.00
2022-11-21T01:27:02.471Z,0.00
2022-11-21T01:28:02.350Z,0.00
2022-11-21T01:29:02.285Z,0.00
2022-11-21T01:30:02.513Z,0.00
2022-11-21T01:31:02.427Z,0.00
2022-11-21T01:32:02.832Z,0.00
2022-11-21T01:33:02.715Z,0.00
2022-11-21T01:34:02.861Z,0.00
2022-11-21T01:35:02.920Z,0.00
2022-11-21T01:36:02.776Z,0.00
2022-11-21T01:37:02.259Z,0.00
2022-11-21T01:38:02.077Z,0.00
2022-11-21T01:39:02.080Z,0.00
2022-11-21T01:40:02.415Z,0.00
2022-11-21T01:41:02.571Z,0.00
2022-11-21T01:42:02.176Z,0.00
2022-11-21T01:43:02.555Z,0.00
2022-11-21T01:44:02.830Z,0.00
2022-11-21T01:45:02.728Z,0.00
2022-11-21T01:46:02.422Z,0.00
2022-11-21T01:47:02.623Z,0.00
2022-11-21T01:48:02.951Z,0.00
2022-11-21T01:49:03.002Z,0.00
2022-11-21T01:50:02.582Z,0.00
2022-11-21T01:51:02.687Z,0.00
2022-11-21T01:52:02.389Z,0.00
2022-11-21T01:53:02.026Z,0.00
2022-11-21T01:54:02.228Z,0.00
2022-11-21T01:55:02.210Z,0.00
2022-11-21T01:56:01.883Z,0.00
2022-11-21T01:57:02.134Z,0.00
2022-11-21T01:58:02.504Z,0.00
2022-11-21T01:59:02.444Z,0.00
2022-11-21T02:00:02.403Z,0.00
2022-11-21T02:01:02.257Z,0.00
2022-11-21T02:02:02.783Z,0.00
2022-11-21T02:03:02.679Z,0.00
2022-11-21T02:04:02.396Z,0.00
2022-11-21T02:05:02.403Z,0.00
2022-11-21T02:06:02.411Z,0.00
2022-11-21T02:07:02.695Z,0.00
2022-11-21T02:08:02.878Z,0.00
2022-11-21T02:09:02.962Z,0.00
2022-11-21T02:10:03.007Z,0.00
2022-11-21T02:11:02.598Z,0.00
2022-11-21T02:12:03.146Z,0.00
2022-11-21T02:13:03.320Z,0.00
2022-11-21T02:14:03.144Z,0.00
2022-11-21T02:15:03.208Z,0.00
2022-11-21T02:16:03.037Z,0.00
2022-11-21T02:17:02.379Z,0.00
2022-11-21T02:18:02.706Z,0.00
2022-11-21T02:19:02.448Z,0.00
2022-11-21T02:20:02.750Z,0.00
2022-11-21T02:21:02.208Z,0.00
2022-11-21T02:22:02.463Z,0.00
2022-11-21T02:23:02.773Z,0.00
2022-11-21T02:24:02.546Z,0.00
2022-11-21T02:25:02.582Z,0.00
2022-11-21T02:26:02.448Z,0.00
2022-11-21T02:27:03.105Z,0.00
2022-11-21T02:28:02.972Z,0.00
2022-11-21T02:29:03.147Z,0.00
2022-11-21T02:30:03.045Z,0.00
2022-11-21T02:31:02.884Z,0.00
2022-11-21T02:32:02.303Z,0.00
2022-11-21T02:33:02.652Z,0.00
2022-11-21T02:34:02.647Z,0.00
2022-11-21T02:35:02.248Z,0.00
2022-11-21T02:36:02.147Z,0.00
2022-11-21T02:37:03.014Z,0.00
2022-11-21T02:38:03.390Z,0.00
2022-11-21T02:39:02.904Z,0.00
2022-11-21T02:40:03.761Z,0.00
2022-11-21T02:41:03.227Z,0.00
2022-11-21T02:42:02.589Z,0.00
2022-11-21T02:43:02.287Z,0.00
2022-11-21T02:44:02.623Z,0.00
2022-11-21T02:45:02.266Z,0.00
2022-11-21T02:46:02.150Z,0.00
2022-11-21T02:47:03.381Z,0.00
2022-11-21T02:48:04.481Z,0.00
2022-11-21T02:49:03.478Z,0.00
2022-11-21T02:50:03.130Z,0.00
2022-11-21T02:51:03.049Z,0.00
2022-11-21T02:52:02.612Z,0.00
2022-11-21T02:53:02.496Z,0.00
2022-11-21T02:54:02.400Z,0.00
2022-11-21T02:55:02.426Z,0.00
2022-11-21T02:56:02.334Z,0.00
2022-11-21T02:57:02.588Z,0.00
2022-11-21T02:58:05.288Z,0.00
2022-11-21T02:59:02.675Z,0.00
2022-11-21T03:00:02.678Z,0.00
2022-11-21T03:01:02.961Z,0.00
2022-11-21T03:02:01.659Z,0.00
2022-11-21T03:03:01.750Z,0.00
2022-11-21T03:04:01.744Z,0.00
2022-11-21T03:05:01.894Z,0.00
2022-11-21T03:06:01.865Z,0.00
2022-11-21T03:07:01.841Z,0.00
2022-11-21T03:08:02.255Z,0.00
2022-11-21T03:09:01.661Z,0.00
2022-11-21T03:10:02.240Z,0.00
2022-11-21T03:11:01.941Z,0.00
2022-11-21T03:12:02.218Z,0.00
2022-11-21T03:13:02.306Z,0.00
2022-11-21T03:14:02.436Z,0.00
2022-11-21T03:15:02.090Z,0.00
2022-11-21T03:16:02.310Z,0.00
2022-11-21T03:17:02.330Z,0.00
2022-11-21T03:18:02.443Z,0.00
2022-11-21T03:19:02.788Z,0.00
2022-11-21T03:20:02.287Z,0.00
2022-11-21T03:21:02.717Z,0.00
2022-11-21T03:22:01.671Z,0.00
2022-11-21T03:23:01.927Z,0.00
2022-11-21T03:24:01.794Z,0.00
2022-11-21T03:25:02.140Z,0.00
2022-11-21T03:26:01.824Z,0.00
2022-11-21T03:27:02.651Z,0.00
2022-11-21T03:28:02.679Z,0.00
2022-11-21T03:29:02.117Z,0.00
2022-11-21T03:30:02.633Z,0.00
2022-11-21T03:31:02.400Z,0.00
2022-11-21T03:32:02.476Z,0.00
2022-11-21T03:33:02.459Z,0.00
2022-11-21T03:34:02.624Z,0.00
2022-11-21T03:35:02.329Z,0.00
2022-11-21T03:36:02.600Z,0.00
2022-11-21T03:37:01.920Z,0.00
2022-11-21T03:38:01.799Z,0.00
2022-11-21T03:39:01.825Z,0.00
2022-11-21T03:40:01.474Z,0.00
2022-11-21T03:41:02.021Z,0.00
2022-11-21T03:42:02.280Z,0.00
2022-11-21T03:43:02.291Z,0.00
2022-11-21T03:44:02.181Z,0.00
2022-11-21T03:45:02.558Z,0.00
2022-11-21T03:46:02.108Z,0.00
2022-11-21T03:47:01.469Z,0.00
2022-11-21T03:48:01.471Z,0.00
2022-11-21T03:49:01.518Z,0.00
2022-11-21T03:50:01.906Z,0.00
2022-11-21T03:51:02.001Z,0.00
2022-11-21T03:52:02.027Z,0.00
2022-11-21T03:53:01.946Z,0.00
2022-11-21T03:54:01.600Z,0.00
2022-11-21T03:55:02.228Z,0.00
2022-11-21T03:56:02.192Z,0.00
2022-11-21T03:57:02.695Z,0.00
2022-11-21T03:58:02.513Z,0.00
2022-11-21T03:59:02.535Z,0.00
2022-11-21T04:00:02.166Z,0.00
2022-11-21T04:01:02.716Z,0.00
2022-11-21T04:02:02.963Z,0.00
2022-11-21T04:03:02.805Z,0.00
2022-11-21T04:04:03.129Z,0.00
2022-11-21T04:05:03.177Z,0.00
2022-11-21T04:06:03.058Z,0.00
2022-11-21T04:07:02.486Z,0.00
2022-11-21T04:08:02.478Z,0.00
2022-11-21T04:09:02.761Z,0.00
2022-11-21T04:10:03.004Z,0.00
2022-11-21T04:11:02.934Z,0.00
2022-11-21T04:12:07.531Z,0.00
2022-11-21T04:13:03.291Z,0.00
2022-11-21T04:14:03.014Z,0.00
2022-11-21T04:15:03.182Z,0.00
2022-11-21T04:16:02.871Z,0.00
2022-11-21T04:17:02.219Z,0.00
2022-11-21T04:18:02.482Z,0.00
2022-11-21T04:19:02.586Z,0.00
2022-11-21T04:20:02.130Z,0.00
2022-11-21T04:21:02.408Z,0.00
2022-11-21T04:22:03.126Z,0.00
2022-11-21T04:23:02.853Z,0.00
2022-11-21T04:24:03.236Z,0.00
2022-11-21T04:25:02.646Z,0.00
2022-11-21T04:26:03.014Z,0.00
2022-11-21T04:27:02.310Z,0.00
2022-11-21T04:28:02.233Z,0.00
2022-11-21T04:29:02.363Z,0.00
2022-11-21T04:30:02.252Z,0.00
2022-11-21T04:31:05.729Z,0.00
2022-11-21T04:32:02.587Z,0.00
2022-11-21T04:33:02.867Z,0.00
2022-11-21T04:34:03.051Z,0.00
2022-11-21T04:35:02.803Z,0.00
2022-11-21T04:36:02.969Z,0.00
2022-11-21T04:37:03.642Z,0.00
2022-11-21T04:38:02.620Z,0.00
2022-11-21T04:39:02.631Z,0.00
2022-11-21T04:40:02.504Z,0.00
2022-11-21T04:41:02.206Z,0.00
2022-11-21T04:42:02.509Z,0.00
2022-11-21T04:43:02.826Z,0.00
2022-11-21T04:44:02.371Z,0.00
2022-11-21T04:45:02.724Z,0.00
2022-11-21T04:46:02.428Z,0.00
2022-11-21T04:47:05.589Z,0.00
2022-11-21T04:48:03.355Z,0.00
2022-11-21T04:49:02.765Z,0.00
2022-11-21T04:50:02.601Z,0.00
2022-11-21T04:51:02.577Z,0.00
2022-11-21T04:52:02.167Z,0.00
2022-11-21T04:53:02.479Z,0.00
2022-11-21T04:54:02.080Z,0.00
2022-11-21T04:55:02.558Z,0.00
2022-11-21T04:56:02.545Z,0.00
2022-11-21T04:57:02.948Z,0.00
2022-11-21T04:58:02.806Z,0.00
2022-11-21T04:59:02.886Z,0.00
2022-11-21T05:00:02.707Z,0.00
2022-11-21T05:01:02.892Z,0.00
2022-11-21T05:02:02.577Z,0.00
2022-11-21T05:03:02.199Z,0.00
2022-11-21T05:04:02.564Z,0.00
2022-11-21T05:05:02.521Z,0.00
2022-11-21T05:06:02.798Z,0.00
2022-11-21T05:07:02.683Z,0.00
2022-11-21T05:08:02.712Z,0.00
2022-11-21T05:09:02.823Z,0.00
2022-11-21T05:10:03.084Z,0.00
2022-11-21T05:11:03.118Z,0.00
2022-11-21T05:12:02.248Z,0.00
2022-11-21T05:13:01.982Z,0.00
2022-11-21T05:14:02.123Z,0.00
2022-11-21T05:15:01.930Z,0.00
2022-11-21T05:16:01.904Z,0.00
2022-11-21T05:17:02.328Z,0.00
2022-11-21T05:18:02.054Z,0.00
2022-11-21T05:19:02.227Z,0.00
2022-11-21T05:20:01.999Z,0.00
2022-11-21T05:21:02.250Z,0.00
2022-11-21T05:22:02.544Z,0.00
2022-11-21T05:23:03.080Z,0.00
2022-11-21T05:24:02.446Z,0.00
2022-11-21T05:25:02.890Z,0.00
2022-11-21T05:26:02.571Z,0.00
2022-11-21T05:27:02.994Z,0.00
2022-11-21T05:28:02.693Z,0.00
2022-11-21T05:29:02.968Z,0.00
2022-11-21T05:30:03.077Z,0.00
2022-11-21T05:31:02.653Z,0.00
2022-11-21T05:32:02.654Z,0.00
2022-11-21T05:33:02.643Z,0.00
2022-11-21T05:34:02.423Z,0.00
2022-11-21T05:35:02.183Z,0.00
2022-11-21T05:36:02.243Z,0.00
2022-11-21T05:37:02.855Z,0.00
2022-11-21T05:38:02.386Z,0.00
2022-11-21T05:39:02.543Z,0.00
2022-11-21T05:40:02.325Z,0.00
2022-11-21T05:41:02.590Z,0.00
2022-11-21T05:42:03.373Z,0.00
2022-11-21T05:43:01.824Z,0.00
2022-11-21T05:44:02.222Z,0.00
2022-11-21T05:45:02.104Z,0.00
2022-11-21T05:46:01.828Z,0.00
2022-11-21T05:47:02.438Z,0.00
2022-11-21T05:48:02.889Z,0.00
2022-11-21T05:49:02.511Z,0.00
2022-11-21T05:50:02.462Z,0.00
2022-11-21T05:51:02.789Z,0.00
2022-11-21T05:52:02.487Z,0.00
2022-11-21T05:53:02.763Z,0.00
2022-11-21T05:54:02.511Z,0.00
2022-11-21T05:55:02.957Z,0.00
2022-11-21T05:56:02.744Z,0.00
2022-11-21T05:57:02.322Z,0.00
2022-11-21T05:58:02.074Z,0.00
2022-11-21T05:59:01.745Z,0.00
2022-11-21T06:00:01.911Z,0.00
2022-11-21T06:01:01.906Z,0.00
2022-11-21T06:02:02.891Z,0.00
2022-11-21T06:03:02.867Z,0.00
2022-11-21T06:04:02.947Z,0.00
2022-11-21T06:05:02.615Z,0.00
2022-11-21T06:06:02.300Z,0.00
2022-11-21T06:07:03.196Z,0.00
2022-11-21T06:08:02.881Z,0.00
2022-11-21T06:09:02.851Z,0.00
2022-11-21T06:10:03.029Z,0.00
2022-11-21T06:11:02.510Z,0.00
2022-11-21T06:12:03.591Z,0.00
2022-11-21T06:13:03.564Z,0.00
2022-11-21T06:14:03.460Z,0.00
2022-11-21T06:15:03.056Z,0.00
2022-11-21T06:16:03.282Z,0.00
2022-11-21T06:17:03.516Z,0.00
2022-11-21T06:18:03.433Z,0.00
2022-11-21T06:19:03.557Z,0.00
2022-11-21T06:20:03.315Z,0.00
2022-11-21T06:21:03.601Z,0.00
2022-11-21T06:22:02.224Z,0.00
2022-11-21T06:23:02.829Z,0.00
2022-11-21T06:24:02.853Z,0.00
2022-11-21T06:25:02.685Z,4.00
2022-11-21T06:26:02.582Z,0.00
2022-11-21T06:27:02.346Z,4.00
2022-11-21T06:28:02.774Z,0.00
2022-11-21T06:29:02.441Z,4.00
2022-11-21T06:30:02.592Z,4.00
2022-11-21T06:31:02.759Z,4.00
2022-11-21T06:32:02.960Z,8.00
2022-11-21T06:33:03.456Z,8.00
2022-11-21T06:34:03.342Z,8.00
2022-11-21T06:35:03.102Z,8.00
2022-11-21T06:36:03.500Z,8.00
2022-11-21T06:37:03.183Z,12.00
2022-11-21T06:38:03.653Z,16.00
2022-11-21T06:39:03.079Z,16.00
2022-11-21T06:40:03.486Z,20.00
2022-11-21T06:41:03.170Z,20.00
2022-11-21T06:42:02.707Z,28.00
2022-11-21T06:43:03.159Z,28.00
2022-11-21T06:44:02.837Z,28.00
2022-11-21T06:45:03.062Z,28.00
2022-11-21T06:46:02.745Z,36.00
2022-11-21T06:47:02.730Z,36.00
2022-11-21T06:48:03.070Z,48.00
2022-11-21T06:49:02.730Z,52.00
2022-11-21T06:50:03.187Z,60.00
2022-11-21T06:51:03.059Z,76.00
2022-11-21T06:52:02.903Z,88.00
2022-11-21T06:53:02.688Z,100.00
2022-11-21T06:54:03.306Z,104.00
2022-11-21T06:55:03.169Z,120.00
2022-11-21T06:56:03.216Z,132.00
2022-11-21T06:57:03.115Z,132.00
2022-11-21T06:58:03.228Z,132.00
2022-11-21T06:59:03.354Z,140.00
2022-11-21T07:00:03.529Z,160.00
2022-11-21T07:01:03.627Z,188.00
2022-11-21T07:02:03.158Z,196.00
2022-11-21T07:03:03.765Z,192.00
2022-11-21T07:04:03.620Z,200.00
2022-11-21T07:05:03.575Z,204.00
2022-11-21T07:06:03.392Z,212.00
2022-11-21T07:07:03.255Z,216.00
2022-11-21T07:08:03.481Z,208.00
2022-11-21T07:09:32.655Z,220.00
2022-11-21T07:10:03.493Z,264.00
2022-11-21T07:11:24.051Z,312.00
2022-11-21T07:12:02.959Z,340.00
2022-11-21T07:13:02.527Z,356.00
2022-11-21T07:14:08.790Z,396.00
2022-11-21T07:15:02.962Z,432.00
2022-11-21T07:16:02.522Z,432.00
2022-11-21T07:17:03.437Z,400.00
2022-11-21T07:18:03.596Z,384.00
2022-11-21T07:19:03.368Z,408.00
2022-11-21T07:20:03.369Z,452.00
2022-11-21T07:21:03.541Z,488.00
2022-11-21T07:22:03.165Z,492.00
2022-11-21T07:23:03.603Z,480.00
2022-11-21T07:24:03.094Z,504.00
2022-11-21T07:25:03.664Z,512.00
2022-11-21T07:26:03.408Z,536.00
2022-11-21T07:27:02.832Z,624.00
2022-11-21T07:28:03.019Z,764.00
2022-11-21T07:29:02.729Z,896.00
2022-11-21T07:30:02.646Z,1028.00
2022-11-21T07:31:07.093Z,1200.00
2022-11-21T07:32:03.535Z,1380.00
2022-11-21T07:33:03.310Z,1504.00
2022-11-21T07:34:03.421Z,1532.00
2022-11-21T07:35:03.392Z,1524.00
2022-11-21T07:36:03.249Z,1504.00
2022-11-21T07:37:05.130Z,1480.00
2022-11-21T07:38:03.013Z,1468.00
2022-11-21T07:39:03.096Z,1508.00
2022-11-21T07:40:03.130Z,1640.00
2022-11-21T07:41:02.884Z,1804.00
2022-11-21T07:42:02.859Z,2032.00
2022-11-21T07:43:05.461Z,2212.00
2022-11-21T07:44:02.645Z,2288.00
2022-11-21T07:45:02.896Z,2216.00
2022-11-21T07:46:02.679Z,2216.00
2022-11-21T07:47:03.643Z,2212.00
2022-11-21T07:48:03.552Z,2024.00
2022-11-21T07:49:03.695Z,1860.00
2022-11-21T07:50:03.619Z,1768.00
2022-11-21T07:51:03.598Z,1616.00
2022-11-21T07:52:02.730Z,1444.00
2022-11-21T07:53:02.429Z,1376.00
2022-11-21T07:54:02.934Z,1380.00
2022-11-21T07:55:02.700Z,1320.00
2022-11-21T07:56:02.485Z,1380.00
2022-11-21T07:57:02.803Z,1484.00
2022-11-21T07:58:03.082Z,1556.00
2022-11-21T07:59:02.872Z,1596.00
2022-11-21T08:00:02.644Z,1492.00
2022-11-21T08:01:02.748Z,1372.00
2022-11-21T08:02:02.373Z,1344.00
2022-11-21T08:03:02.243Z,1396.00
2022-11-21T08:04:02.015Z,1544.00
2022-11-21T08:05:02.261Z,1708.00
2022-11-21T08:06:02.112Z,1804.00
2022-11-21T08:07:02.243Z,1860.00
2022-11-21T08:08:02.699Z,1928.00
2022-11-21T08:09:02.328Z,1944.00
2022-11-21T08:10:02.099Z,1976.00
2022-11-21T08:11:02.552Z,1976.00
2022-11-21T08:12:02.011Z,1956.00
2022-11-21T08:13:01.657Z,1996.00
2022-11-21T08:14:02.267Z,2048.00
2022-11-21T08:15:01.834Z,2076.00
2022-11-21T08:16:01.660Z,2108.00
2022-11-21T08:17:02.706Z,2216.00
2022-11-21T08:18:02.632Z,2376.00
2022-11-21T08:19:02.399Z,2512.00
2022-11-21T08:20:02.246Z,2632.00
2022-11-21T08:21:02.700Z,2800.00
2022-11-21T08:22:01.984Z,3008.00
2022-11-21T08:23:01.869Z,3208.00
2022-11-21T08:24:01.699Z,3316.00
2022-11-21T08:25:02.200Z,3304.00
2022-11-21T08:26:02.298Z,3144.00
2022-11-21T08:27:02.324Z,2780.00
2022-11-21T08:28:01.991Z,2368.00
2022-11-21T08:29:01.935Z,2100.00
2022-11-21T08:30:02.390Z,1976.00
2022-11-21T08:31:01.962Z,1924.00
2022-11-21T08:32:02.864Z,1924.00
2022-11-21T08:33:02.887Z,1980.00
2022-11-21T08:34:02.557Z,2096.00
2022-11-21T08:35:02.561Z,2296.00
2022-11-21T08:36:02.342Z,2448.00
2022-11-21T08:37:01.713Z,2364.00
2022-11-21T08:38:01.903Z,2072.00
2022-11-21T08:39:01.622Z,1768.00
2022-11-21T08:40:02.178Z,1588.00
2022-11-21T08:41:02.175Z,1504.00
2022-11-21T08:42:02.547Z,1424.00
2022-11-21T08:43:02.566Z,1328.00
2022-11-21T08:44:02.577Z,1244.00
2022-11-21T08:45:02.308Z,1180.00
2022-11-21T08:46:02.585Z,1156.00
2022-11-21T08:47:02.710Z,1208.00
2022-11-21T08:48:02.840Z,1348.00
2022-11-21T08:49:02.706Z,1564.00
2022-11-21T08:50:08.585Z,1784.00
2022-11-21T08:51:02.977Z,1948.00
2022-11-21T08:52:02.017Z,2076.00
2022-11-21T08:53:02.070Z,2208.00
2022-11-21T08:54:01.654Z,2376.00
2022-11-21T08:55:01.872Z,2596.00
2022-11-21T08:56:04.355Z,2776.00
2022-11-21T08:57:02.460Z,2800.00
2022-11-21T08:58:01.852Z,2604.00
2022-11-21T08:59:02.137Z,2344.00
2022-11-21T09:00:02.186Z,2272.00
2022-11-21T09:01:02.095Z,2388.00
2022-11-21T09:02:01.535Z,2844.00
2022-11-21T09:03:01.848Z,3516.00
2022-11-21T09:04:01.572Z,3968.00
2022-11-21T09:05:01.731Z,4332.00
2022-11-21T09:06:01.722Z,4584.00
2022-11-21T09:07:02.037Z,4756.00
2022-11-21T09:08:02.043Z,4864.00
2022-11-21T09:09:02.062Z,4916.00
2022-11-21T09:10:02.609Z,5136.00
2022-11-21T09:11:02.404Z,5552.00
2022-11-21T09:12:02.243Z,5688.00
2022-11-21T09:13:02.377Z,5400.00
2022-11-21T09:14:02.270Z,4832.00
2022-11-21T09:15:02.694Z,4296.00
2022-11-21T09:16:02.420Z,3912.00
2022-11-21T09:17:02.438Z,4036.00
2022-11-21T09:18:01.497Z,4536.00
2022-11-21T09:19:01.429Z,4600.00
2022-11-21T09:20:01.830Z,4660.00
2022-11-21T09:21:01.421Z,5252.00
2022-11-21T09:22:01.949Z,6720.00
2022-11-21T09:23:02.376Z,7872.00
2022-11-21T09:24:02.490Z,8088.00
2022-11-21T09:25:02.018Z,7684.00
2022-11-21T09:26:02.049Z,7424.00
2022-11-21T09:27:01.491Z,7084.00
2022-11-21T09:28:02.035Z,6580.00
2022-11-21T09:29:01.667Z,5960.00
2022-11-21T09:30:01.488Z,5344.00
2022-11-21T09:31:01.588Z,5100.00
2022-11-21T09:32:01.782Z,5104.00
2022-11-21T09:33:02.127Z,5260.00
2022-11-21T09:34:01.849Z,5524.00
2022-11-21T09:35:02.346Z,6144.00
2022-11-21T09:36:01.824Z,6980.00
2022-11-21T09:37:02.162Z,7336.00
2022-11-21T09:38:02.629Z,6868.00
2022-11-21T09:39:02.478Z,6824.00
2022-11-21T09:40:02.646Z,7604.00
2022-11-21T09:41:02.497Z,7660.00
2022-11-21T09:42:02.764Z,7320.00
2022-11-21T09:43:02.636Z,7420.00
2022-11-21T09:44:02.559Z,7764.00
2022-11-21T09:45:02.534Z,7144.00
2022-11-21T09:46:02.857Z,6680.00
2022-11-21T09:47:02.470Z,7308.00
2022-11-21T09:48:02.903Z,7532.00
2022-11-21T09:49:03.094Z,8532.00
2022-11-21T09:50:02.989Z,9232.00
2022-11-21T09:51:02.389Z,10044.00
2022-11-21T09:52:02.069Z,10272.00
2022-11-21T09:53:01.973Z,9840.00
2022-11-21T09:54:01.943Z,10344.00
2022-11-21T09:55:02.478Z,11012.00
2022-11-21T09:56:02.021Z,11104.00
2022-11-21T09:57:02.304Z,10664.00
2022-11-21T09:58:02.762Z,10888.00
2022-11-21T09:59:02.329Z,12216.00
2022-11-21T10:00:02.773Z,12904.00
2022-11-21T10:01:03.162Z,11620.00
2022-11-21T10:02:02.631Z,14656.00
2022-11-21T10:03:02.698Z,17600.00
2022-11-21T10:04:02.565Z,10512.00
2022-11-21T10:05:03.062Z,14496.00
2022-11-21T10:06:02.479Z,11568.00
2022-11-21T10:07:02.131Z,12900.00
2022-11-21T10:08:01.960Z,15168.00
2022-11-21T10:09:02.571Z,11512.00
2022-11-21T10:10:02.114Z,16864.00
2022-11-21T10:11:11.437Z,15968.00
2022-11-21T10:12:02.105Z,15232.00
2022-11-21T10:13:02.357Z,15104.00
2022-11-21T10:14:02.213Z,15776.00
2022-11-21T10:15:01.927Z,16640.00
2022-11-21T10:16:02.408Z,17760.00
2022-11-21T10:17:02.208Z,18720.00
2022-11-21T10:18:02.575Z,19328.00
2022-11-21T10:19:02.136Z,19392.00
2022-11-21T10:20:02.375Z,19424.00
2022-11-21T10:21:02.119Z,18656.00
2022-11-21T10:22:02.877Z,18240.00
2022-11-21T10:23:02.762Z,17600.00
2022-11-21T10:24:02.410Z,18272.00
2022-11-21T10:25:03.010Z,17888.00
2022-11-21T10:26:02.669Z,18400.00
2022-11-21T10:27:02.433Z,17920.00
2022-11-21T10:28:02.283Z,18432.00
2022-11-21T10:29:02.100Z,18464.00
2022-11-21T10:30:02.630Z,18560.00
2022-11-21T10:31:02.400Z,16800.00
2022-11-21T10:32:01.999Z,18368.00
2022-11-21T10:33:01.655Z,18016.00
2022-11-21T10:34:02.057Z,17888.00
2022-11-21T10:35:02.309Z,15936.00
2022-11-21T10:36:02.098Z,7032.00
2022-11-21T10:37:06.379Z,7104.00
2022-11-21T10:38:02.611Z,7108.00
2022-11-21T10:39:02.684Z,15104.00
2022-11-21T10:40:02.900Z,8652.00
2022-11-21T10:41:02.682Z,9128.00
2022-11-21T10:42:02.410Z,8644.00
2022-11-21T10:43:02.271Z,8224.00
2022-11-21T10:44:02.477Z,7908.00
2022-11-21T10:45:02.619Z,7056.00
2022-11-21T10:46:02.234Z,6116.00
2022-11-21T10:47:02.790Z,5524.00
2022-11-21T10:48:08.055Z,5288.00
2022-11-21T10:49:02.725Z,5404.00
2022-11-21T10:50:02.534Z,5508.00
2022-11-21T10:51:02.577Z,5376.00
2022-11-21T10:52:02.180Z,5444.00
2022-11-21T10:53:02.225Z,5904.00
2022-11-21T10:54:07.629Z,5580.00
2022-11-21T10:55:02.239Z,5312.00
2022-11-21T10:56:02.102Z,6720.00
2022-11-21T10:57:02.461Z,8016.00
2022-11-21T10:58:02.262Z,12164.00
2022-11-21T10:59:02.119Z,9528.00
2022-11-21T11:00:02.485Z,9984.00
2022-11-21T11:01:02.263Z,20320.00
2022-11-21T11:02:02.886Z,19296.00
2022-11-21T11:03:02.982Z,18944.00
2022-11-21T11:04:26.236Z,16928.00
2022-11-21T11:05:02.826Z,14144.00
2022-11-21T11:06:02.669Z,16928.00
2022-11-21T11:07:03.275Z,17472.00
2022-11-21T11:08:03.467Z,17344.00
2022-11-21T11:09:02.847Z,16640.00
2022-11-21T11:10:03.417Z,16064.00
2022-11-21T11:11:02.941Z,16640.00
2022-11-21T11:12:02.728Z,17152.00
2022-11-21T11:13:08.756Z,11528.00
2022-11-21T11:14:02.495Z,5796.00
2022-11-21T11:15:02.655Z,5312.00
2022-11-21T11:16:02.402Z,5068.00
2022-11-21T11:17:02.767Z,5028.00
2022-11-21T11:18:08.839Z,5000.00
2022-11-21T11:19:02.903Z,4988.00
2022-11-21T11:20:02.904Z,5020.00
2022-11-21T11:21:02.698Z,5080.00
2022-11-21T11:22:02.970Z,5060.00
2022-11-21T11:23:02.752Z,5160.00
2022-11-21T11:24:02.467Z,5344.00
2022-11-21T11:25:02.893Z,5424.00
2022-11-21T11:26:02.681Z,5340.00
2022-11-21T11:27:03.251Z,5380.00
2022-11-21T11:28:02.800Z,5548.00
2022-11-21T11:29:03.210Z,5544.00
2022-11-21T11:30:03.035Z,5580.00
2022-11-21T11:31:02.848Z,5848.00
2022-11-21T11:32:02.876Z,6604.00
2022-11-21T11:33:02.853Z,7140.00
2022-11-21T11:34:02.810Z,7500.00
2022-11-21T11:35:02.893Z,8020.00
2022-11-21T11:36:02.579Z,8844.00
2022-11-21T11:37:03.074Z,9900.00
2022-11-21T11:38:02.526Z,10500.00
2022-11-21T11:39:02.573Z,10544.00
2022-11-21T11:40:03.114Z,11868.00
2022-11-21T11:41:02.511Z,15936.00
2022-11-21T11:42:03.286Z,11956.00
2022-11-21T11:43:03.073Z,10128.00
2022-11-21T11:44:02.879Z,10580.00
2022-11-21T11:45:02.748Z,9308.00
2022-11-21T11:46:03.174Z,8776.00
2022-11-21T11:47:03.693Z,8196.00
2022-11-21T11:48:03.322Z,8272.00
2022-11-21T11:49:19.680Z,8176.00
2022-11-21T11:50:03.570Z,12088.00
2022-11-21T11:51:03.148Z,7884.00
2022-11-21T11:52:03.348Z,11688.00
2022-11-21T11:53:02.887Z,7224.00
2022-11-21T11:54:03.337Z,6656.00
2022-11-21T11:55:02.912Z,6944.00
2022-11-21T11:56:03.387Z,7332.00
2022-11-21T11:57:03.668Z,7456.00
2022-11-21T11:58:03.167Z,7168.00
2022-11-21T11:59:03.662Z,7232.00
2022-11-21T12:00:03.330Z,8188.00
2022-11-21T12:01:03.320Z,13084.00
2022-11-21T12:02:08.856Z,10844.00
2022-11-21T12:03:03.389Z,15296.00
2022-11-21T12:04:03.133Z,15200.00
2022-11-21T12:05:03.272Z,15456.00
2022-11-21T12:06:08.649Z,15712.00
2022-11-21T12:08:05.952Z,15328.00
2022-11-21T12:09:02.547Z,12112.00
2022-11-21T12:10:02.420Z,11520.00
2022-11-21T12:11:02.637Z,10308.00
2022-11-21T12:12:02.767Z,9348.00
2022-11-21T12:13:03.292Z,9072.00
2022-11-21T12:14:03.089Z,8812.00
2022-11-21T12:15:02.952Z,8544.00
2022-11-21T12:16:08.551Z,8600.00
2022-11-21T12:17:03.227Z,10476.00
2022-11-21T12:18:02.897Z,11644.00
2022-11-21T12:19:02.475Z,10404.00
2022-11-21T12:20:02.429Z,10680.00
2022-11-21T12:21:02.462Z,8308.00
2022-11-21T12:22:02.718Z,9052.00
2022-11-21T12:23:03.112Z,10112.00
2022-11-21T12:24:02.957Z,10128.00
2022-11-21T12:25:03.384Z,9860.00
2022-11-21T12:26:02.886Z,10384.00
2022-11-21T12:27:03.203Z,10524.00
2022-11-21T12:28:02.713Z,10876.00
2022-11-21T12:29:03.153Z,11384.00
2022-11-21T12:30:02.605Z,10004.00
2022-11-21T12:31:02.983Z,9484.00
2022-11-21T12:32:02.822Z,10156.00
2022-11-21T12:33:08.136Z,10288.00
2022-11-21T12:34:02.626Z,10872.00
2022-11-21T12:35:02.547Z,11984.00
2022-11-21T12:36:16.765Z,12056.00
2022-11-21T12:37:03.034Z,11440.00
2022-11-21T12:38:03.000Z,10260.00
2022-11-21T12:39:02.699Z,9872.00
2022-11-21T12:40:03.188Z,10960.00
2022-11-21T12:41:03.215Z,9344.00
2022-11-21T12:42:02.872Z,11584.00